createdAt,value
2018-05-25T00:00:09.730Z,15.69
2018-05-25T00:02:37.349Z,15.64
2018-05-25T00:05:04.917Z,15.68
2018-05-25T00:07:32.486Z,15.75
2018-05-25T00:12:33.018Z,15.70
2018-05-25T00:15:00.605Z,15.68
2018-05-25T00:17:28.187Z,15.65
2018-05-25T00:19:55.795Z,15.67
2018-05-25T00:22:23.380Z,15.60
2018-05-25T00:24:50.999Z,15.58
2018-05-25T00:27:18.651Z,15.61
2018-05-25T00:29:46.253Z,15.52
2018-05-25T00:32:13.864Z,15.59
2018-05-25T00:34:41.497Z,15.58
2018-05-25T00:37:09.067Z,15.63
2018-05-25T00:39:36.661Z,15.46
2018-05-25T00:42:04.299Z,15.68
2018-05-25T00:44:31.889Z,15.66
2018-05-25T00:46:59.469Z,15.73
2018-05-25T00:49:27.096Z,15.77
2018-05-25T00:51:54.676Z,15.79
2018-05-25T00:54:22.257Z,16.02
2018-05-25T00:56:49.924Z,15.87
2018-05-25T00:59:17.509Z,15.78
2018-05-25T01:01:45.104Z,15.96
2018-05-25T01:04:12.797Z,16.04
2018-05-25T01:06:40.370Z,16.24
2018-05-25T01:09:07.950Z,16.10
2018-05-25T01:11:35.576Z,15.90
2018-05-25T01:14:03.161Z,15.93
2018-05-25T01:16:30.754Z,16.05
2018-05-25T01:18:58.372Z,16.16
2018-05-25T01:21:25.942Z,16.07
2018-05-25T01:23:53.529Z,15.81
2018-05-25T01:26:21.183Z,15.76
2018-05-25T01:28:48.768Z,15.55
2018-05-25T01:31:16.405Z,15.64
2018-05-25T01:33:44.029Z,15.62
2018-05-25T01:36:11.613Z,15.62
2018-05-25T01:38:39.188Z,15.55
2018-05-25T01:41:06.815Z,15.64
2018-05-25T01:43:34.407Z,15.83
2018-05-25T01:46:02.027Z,15.74
2018-05-25T01:48:29.690Z,15.55
2018-05-25T01:50:57.284Z,15.46
2018-05-25T01:53:24.865Z,15.52
2018-05-25T01:55:52.496Z,15.53
2018-05-25T01:58:20.087Z,15.56
2018-05-25T02:00:47.673Z,15.43
2018-05-25T02:03:15.287Z,15.41
2018-05-25T02:05:42.884Z,15.22
2018-05-25T02:08:10.476Z,15.33
2018-05-25T02:10:38.101Z,15.43
2018-05-25T02:13:05.685Z,15.60
2018-05-25T02:15:33.266Z,15.47
2018-05-25T02:18:00.882Z,15.29
2018-05-25T02:20:28.462Z,15.24
2018-05-25T02:22:56.051Z,15.35
2018-05-25T02:25:23.723Z,15.49
2018-05-25T02:27:51.308Z,15.30
2018-05-25T02:30:18.927Z,15.30
2018-05-25T02:32:46.559Z,15.46
2018-05-25T02:35:14.196Z,15.48
2018-05-25T02:37:41.782Z,15.49
2018-05-25T02:40:09.414Z,15.52
2018-05-25T02:42:36.997Z,15.56
2018-05-25T02:45:04.576Z,15.64
2018-05-25T02:47:32.213Z,15.66
2018-05-25T02:49:59.812Z,15.57
2018-05-25T02:52:27.418Z,15.47
2018-05-25T02:54:55.051Z,15.60
2018-05-25T02:57:22.761Z,15.56
2018-05-25T02:59:50.361Z,15.65
2018-05-25T03:02:18.001Z,15.57
2018-05-25T03:04:45.592Z,15.60
2018-05-25T03:07:13.178Z,15.80
2018-05-25T03:09:40.801Z,15.61
2018-05-25T03:12:08.379Z,15.63
2018-05-25T03:14:35.956Z,15.75
2018-05-25T03:17:03.591Z,15.82
2018-05-25T03:19:31.185Z,15.69
2018-05-25T03:21:58.764Z,15.75
2018-05-25T03:24:26.410Z,15.74
2018-05-25T03:26:53.990Z,15.85
2018-05-25T03:29:21.579Z,15.89
2018-05-25T03:31:49.257Z,16.02
2018-05-25T03:34:16.848Z,16.11
2018-05-25T03:36:44.435Z,16.16
2018-05-25T03:39:12.070Z,16.27
2018-05-25T03:41:39.654Z,16.62
2018-05-25T03:44:07.240Z,17.26
2018-05-25T03:46:34.898Z,18.27
2018-05-25T03:49:02.510Z,19.17
2018-05-25T03:51:30.112Z,19.82
2018-05-25T03:53:57.745Z,20.38
2018-05-25T03:56:25.339Z,20.77
2018-05-25T03:59:04.553Z,21.35
2018-05-25T04:01:43.872Z,21.60
2018-05-25T04:04:11.474Z,21.58
2018-05-25T04:06:39.069Z,21.55
2018-05-25T04:09:07.579Z,21.31
2018-05-25T04:11:35.202Z,21.01
2018-05-25T04:14:02.785Z,20.98
2018-05-25T04:16:30.357Z,21.22
2018-05-25T04:18:57.981Z,21.49
2018-05-25T04:21:25.628Z,21.99
2018-05-25T04:23:53.210Z,22.43
2018-05-25T04:26:20.869Z,22.74
2018-05-25T04:28:48.456Z,23.13
2018-05-25T04:31:16.049Z,23.43
2018-05-25T04:33:43.740Z,23.85
2018-05-25T04:36:11.342Z,24.27
2018-05-25T04:38:38.941Z,24.83
2018-05-25T04:41:06.571Z,24.87
2018-05-25T04:43:34.163Z,25.11
2018-05-25T04:46:01.792Z,25.69
2018-05-25T04:48:29.424Z,25.95
2018-05-25T04:50:57.024Z,26.43
2018-05-25T04:53:27.400Z,26.88
2018-05-25T04:55:55.017Z,27.41
2018-05-25T04:58:22.609Z,27.74
2018-05-25T05:00:50.192Z,28.06
2018-05-25T05:03:17.818Z,28.75
2018-05-25T05:05:45.408Z,28.26
2018-05-25T05:08:12.995Z,28.59
2018-05-25T05:10:40.631Z,29.27
2018-05-25T05:13:08.204Z,30.14
2018-05-25T05:15:35.779Z,29.17
2018-05-25T05:18:03.421Z,30.11
2018-05-25T05:20:31.027Z,30.32
2018-05-25T05:22:58.652Z,30.36
2018-05-25T05:25:26.283Z,31.15
2018-05-25T05:27:53.903Z,31.96
2018-05-25T05:30:21.478Z,32.88
2018-05-25T05:32:49.087Z,32.45
2018-05-25T05:35:16.671Z,33.64
2018-05-25T05:37:44.247Z,33.38
2018-05-25T05:40:11.876Z,33.74
2018-05-25T05:42:39.448Z,34.02
2018-05-25T05:45:07.015Z,33.52
2018-05-25T05:47:34.599Z,33.54
2018-05-25T05:50:02.168Z,33.42
2018-05-25T05:52:29.750Z,33.80
2018-05-25T05:54:57.316Z,35.34
2018-05-25T05:57:24.888Z,35.30
2018-05-25T05:59:52.513Z,34.32
2018-05-25T06:02:20.115Z,35.31
2018-05-25T06:04:47.689Z,35.61
2018-05-25T06:07:15.348Z,37.54
2018-05-25T06:09:42.953Z,37.52
2018-05-25T06:12:10.543Z,36.47
2018-05-25T06:14:38.198Z,36.05
2018-05-25T06:17:05.797Z,36.55
2018-05-25T06:19:33.428Z,35.85
2018-05-25T06:22:01.082Z,35.41
2018-05-25T06:24:29.391Z,36.50
2018-05-25T06:26:58.277Z,35.79
2018-05-25T06:29:27.077Z,35.23
2018-05-25T06:31:56.115Z,36.52
2018-05-25T06:34:23.903Z,35.30
2018-05-25T06:36:51.520Z,35.85
2018-05-25T06:39:19.102Z,35.58
2018-05-25T06:41:46.702Z,34.97
2018-05-25T06:44:14.346Z,35.16
2018-05-25T06:46:41.923Z,35.47
2018-05-25T06:49:09.520Z,35.11
2018-05-25T06:51:37.154Z,35.42
2018-05-25T06:54:04.759Z,34.81
2018-05-25T06:56:32.328Z,35.80
2018-05-25T06:58:59.945Z,35.60
2018-05-25T07:01:27.547Z,36.74
2018-05-25T07:03:55.149Z,36.59
2018-05-25T07:06:22.734Z,36.63
2018-05-25T07:08:50.333Z,36.25
2018-05-25T07:11:17.916Z,36.51
2018-05-25T07:13:45.498Z,36.73
2018-05-25T07:16:13.075Z,36.74
2018-05-25T07:18:40.652Z,36.51
2018-05-25T07:21:08.244Z,37.20
2018-05-25T07:23:35.829Z,37.17
2018-05-25T07:26:03.399Z,36.16
2018-05-25T07:28:30.981Z,35.18
2018-05-25T07:30:58.571Z,36.32
2018-05-25T07:33:26.205Z,36.79
2018-05-25T07:35:53.799Z,34.76
2018-05-25T07:38:21.376Z,35.73
2018-05-25T07:40:48.986Z,36.40
2018-05-25T07:43:16.568Z,35.52
2018-05-25T07:45:44.148Z,34.66
2018-05-25T07:48:11.764Z,33.96
2018-05-25T07:50:39.339Z,34.25
2018-05-25T07:53:06.911Z,34.64
2018-05-25T07:55:34.548Z,33.78
2018-05-25T07:58:02.130Z,34.93
2018-05-25T08:00:29.912Z,35.83
2018-05-25T08:02:57.607Z,35.65
2018-05-25T08:05:25.174Z,35.93
2018-05-25T08:07:52.858Z,35.92
2018-05-25T08:10:20.490Z,35.69
2018-05-25T08:12:48.065Z,35.86
2018-05-25T08:15:15.649Z,36.64
2018-05-25T08:17:43.249Z,36.55
2018-05-25T08:20:10.833Z,36.98
2018-05-25T08:22:38.421Z,37.20
2018-05-25T08:25:06.045Z,37.07
2018-05-25T08:27:33.649Z,36.40
2018-05-25T08:30:01.276Z,34.82
2018-05-25T08:32:28.870Z,34.00
2018-05-25T08:34:56.512Z,33.38
2018-05-25T08:37:24.085Z,34.20
2018-05-25T08:39:51.701Z,34.50
2018-05-25T08:42:19.308Z,33.52
2018-05-25T08:44:46.877Z,33.80
2018-05-25T08:47:14.512Z,34.11
2018-05-25T08:49:42.104Z,33.95
2018-05-25T08:52:09.681Z,33.42
2018-05-25T08:54:37.291Z,33.72
2018-05-25T08:57:04.915Z,33.68
2018-05-25T08:59:32.525Z,34.40
2018-05-25T09:02:00.141Z,34.22
2018-05-25T09:04:27.708Z,34.65
2018-05-25T09:06:55.296Z,34.99
2018-05-25T09:09:22.900Z,35.22
2018-05-25T09:11:50.490Z,35.49
2018-05-25T09:14:18.059Z,35.74
2018-05-25T09:16:45.671Z,35.33
2018-05-25T09:19:13.258Z,35.63
2018-05-25T09:21:40.874Z,35.24
2018-05-25T09:24:08.479Z,34.50
2018-05-25T09:26:36.061Z,34.78
2018-05-25T09:29:03.639Z,35.50
2018-05-25T09:31:31.236Z,35.22
2018-05-25T09:33:58.798Z,35.30
2018-05-25T09:36:26.404Z,36.31
2018-05-25T09:38:54.007Z,35.23
2018-05-25T09:41:21.591Z,35.58
2018-05-25T09:43:49.170Z,36.13
2018-05-25T09:46:17.212Z,36.33
2018-05-25T09:48:44.891Z,36.33
2018-05-25T09:51:12.485Z,34.89
2018-05-25T09:53:40.939Z,36.72
2018-05-25T09:56:08.545Z,36.91
2018-05-25T09:58:36.192Z,37.48
2018-05-25T10:01:03.887Z,37.24
2018-05-25T10:03:31.463Z,37.56
2018-05-25T10:05:59.036Z,38.08
2018-05-25T10:08:26.649Z,37.13
2018-05-25T10:10:54.277Z,37.81
2018-05-25T10:13:21.870Z,37.60
2018-05-25T10:15:49.478Z,38.15
2018-05-25T10:18:17.048Z,36.12
2018-05-25T10:20:44.602Z,36.34
2018-05-25T10:23:12.234Z,37.26
2018-05-25T10:25:39.787Z,37.81
2018-05-25T10:28:07.352Z,37.94
2018-05-25T10:30:34.926Z,37.88
2018-05-25T10:33:02.523Z,39.06
2018-05-25T10:35:30.091Z,38.43
2018-05-25T10:37:57.683Z,38.95
2018-05-25T10:40:25.240Z,38.04
2018-05-25T10:42:52.809Z,38.60
2018-05-25T10:45:20.408Z,39.39
2018-05-25T10:47:47.964Z,39.73
2018-05-25T10:50:15.524Z,39.69
2018-05-25T10:52:43.130Z,38.54
2018-05-25T10:55:10.698Z,38.59
2018-05-25T10:57:38.265Z,39.38
2018-05-25T11:00:05.869Z,38.56
2018-05-25T11:02:33.432Z,38.56
2018-05-25T11:05:01.004Z,38.50
2018-05-25T11:07:28.608Z,39.34
2018-05-25T11:09:56.224Z,37.76
2018-05-25T11:12:23.777Z,36.75
2018-05-25T11:14:51.367Z,35.46
2018-05-25T11:17:18.934Z,36.92
2018-05-25T11:19:46.510Z,36.46
2018-05-25T11:22:14.215Z,37.24
2018-05-25T11:24:41.825Z,36.70
2018-05-25T11:27:09.422Z,36.81
2018-05-25T11:29:38.851Z,35.29
2018-05-25T11:32:06.464Z,34.51
2018-05-25T11:34:34.033Z,34.95
2018-05-25T11:37:01.645Z,35.99
2018-05-25T11:39:29.238Z,37.43
2018-05-25T11:41:56.802Z,36.71
2018-05-25T11:44:24.402Z,36.25
2018-05-25T11:46:51.964Z,34.90
2018-05-25T11:49:19.522Z,34.99
2018-05-25T11:51:47.126Z,35.35
2018-05-25T11:54:14.704Z,34.99
2018-05-25T11:56:42.276Z,34.35
2018-05-25T11:59:09.872Z,31.90
2018-05-25T12:01:37.442Z,31.77
2018-05-25T12:04:05.012Z,32.68
2018-05-25T12:06:32.651Z,34.12
2018-05-25T12:09:00.223Z,34.73
2018-05-25T12:11:27.791Z,35.54
2018-05-25T12:13:55.383Z,35.66
2018-05-25T12:16:23.005Z,35.85
2018-05-25T12:18:50.567Z,36.12
2018-05-25T12:21:18.162Z,36.27
2018-05-25T12:23:45.736Z,35.48
2018-05-25T12:26:13.304Z,35.89
2018-05-25T12:28:40.923Z,35.99
2018-05-25T12:31:08.502Z,35.00
2018-05-25T12:33:36.055Z,34.73
2018-05-25T12:36:03.722Z,32.79
2018-05-25T12:38:31.288Z,31.44
2018-05-25T12:40:58.867Z,32.21
2018-05-25T12:43:26.471Z,31.15
2018-05-25T12:45:54.063Z,31.98
2018-05-25T12:48:21.651Z,32.18
2018-05-25T12:50:49.259Z,31.93
2018-05-25T12:53:16.850Z,32.38
2018-05-25T12:55:44.435Z,31.39
2018-05-25T12:58:12.073Z,31.51
2018-05-25T13:00:39.631Z,30.67
2018-05-25T13:03:07.209Z,31.59
2018-05-25T13:05:34.813Z,31.97
2018-05-25T13:08:02.408Z,32.10
2018-05-25T13:10:29.982Z,32.24
2018-05-25T13:12:57.583Z,31.39
2018-05-25T13:15:25.149Z,31.20
2018-05-25T13:17:52.721Z,30.19
2018-05-25T13:20:20.433Z,28.24
2018-05-25T13:22:48.032Z,27.37
2018-05-25T13:25:15.604Z,26.70
2018-05-25T13:27:43.229Z,24.79
2018-05-25T13:30:10.853Z,23.36
2018-05-25T13:32:38.418Z,22.34
2018-05-25T13:35:06.088Z,21.65
2018-05-25T13:37:33.666Z,20.90
2018-05-25T13:40:01.236Z,20.62
2018-05-25T13:42:28.828Z,20.47
2018-05-25T13:44:56.410Z,20.43
2018-05-25T13:47:23.995Z,20.38
2018-05-25T13:49:51.627Z,20.19
2018-05-25T13:52:19.209Z,20.13
2018-05-25T13:54:46.790Z,20.14
2018-05-25T13:57:14.435Z,20.13
2018-05-25T13:59:42.015Z,20.10
2018-05-25T14:02:09.583Z,20.11
2018-05-25T14:04:37.191Z,20.02
2018-05-25T14:07:04.773Z,19.92
2018-05-25T14:09:32.334Z,19.67
2018-05-25T14:11:59.938Z,19.40
2018-05-25T14:14:27.505Z,18.96
2018-05-25T14:16:55.103Z,18.75
2018-05-25T14:19:22.734Z,18.58
2018-05-25T14:21:50.311Z,18.63
2018-05-25T14:24:17.898Z,18.70
2018-05-25T14:26:45.518Z,18.78
2018-05-25T14:29:13.112Z,18.65
2018-05-25T14:31:40.702Z,18.65
2018-05-25T14:34:08.336Z,18.53
2018-05-25T14:36:35.904Z,18.51
2018-05-25T14:39:03.545Z,18.55
2018-05-25T14:41:31.153Z,18.46
2018-05-25T14:43:58.734Z,18.55
2018-05-25T14:46:26.342Z,18.53
2018-05-25T14:48:53.951Z,18.47
2018-05-25T14:51:21.538Z,18.46
2018-05-25T14:53:49.123Z,18.50
2018-05-25T14:56:16.738Z,18.58
2018-05-25T14:58:44.329Z,18.67
2018-05-25T15:01:11.962Z,18.71
2018-05-25T15:03:39.580Z,18.84
2018-05-25T15:06:07.173Z,18.92
2018-05-25T15:08:34.772Z,18.96
2018-05-25T15:11:02.390Z,19.11
2018-05-25T15:13:29.980Z,19.19
2018-05-25T15:15:57.567Z,19.36
2018-05-25T15:18:25.170Z,19.35
2018-05-25T15:20:52.753Z,19.37
2018-05-25T15:23:20.336Z,19.29
2018-05-25T15:25:47.966Z,19.36
2018-05-25T15:28:15.548Z,19.45
2018-05-25T15:30:43.137Z,19.50
2018-05-25T15:33:10.765Z,19.48
2018-05-25T15:35:38.351Z,19.47
2018-05-25T15:38:05.985Z,19.55
2018-05-25T15:40:33.598Z,19.60
2018-05-25T15:43:01.194Z,19.63
2018-05-25T15:45:28.789Z,19.67
2018-05-25T15:47:56.391Z,19.71
2018-05-25T15:50:23.998Z,19.74
2018-05-25T15:52:51.580Z,19.76
2018-05-25T15:55:19.198Z,19.77
2018-05-25T15:57:46.789Z,19.78
2018-05-25T16:00:14.415Z,19.77
2018-05-25T16:02:42.053Z,19.75
2018-05-25T16:05:09.640Z,19.69
2018-05-25T16:07:37.207Z,19.69
2018-05-25T16:10:04.876Z,19.59
2018-05-25T16:12:32.455Z,19.64
2018-05-25T16:15:00.019Z,19.72
2018-05-25T16:17:27.641Z,19.73
2018-05-25T16:19:55.210Z,19.71
2018-05-25T16:22:22.826Z,19.79
2018-05-25T16:24:50.439Z,19.74
2018-05-25T16:27:18.018Z,19.77
2018-05-25T16:29:45.640Z,19.83
2018-05-25T16:32:13.264Z,19.76
2018-05-25T16:34:40.836Z,19.70
2018-05-25T16:37:08.436Z,19.66
2018-05-25T16:39:36.046Z,19.60
2018-05-25T16:42:03.627Z,19.56
2018-05-25T16:44:31.202Z,19.51
2018-05-25T16:46:58.836Z,19.40
2018-05-25T16:49:26.409Z,19.36
2018-05-25T16:51:53.989Z,19.33
2018-05-25T16:54:21.632Z,19.26
2018-05-25T16:56:49.220Z,19.27
2018-05-25T16:59:16.814Z,19.28
2018-05-25T17:01:44.435Z,19.26
2018-05-25T17:04:12.008Z,19.23
2018-05-25T17:06:39.615Z,19.26
2018-05-25T17:09:07.232Z,19.27
2018-05-25T17:11:34.840Z,19.36
2018-05-25T17:14:02.475Z,19.43
2018-05-25T17:16:30.159Z,19.41
2018-05-25T17:18:57.778Z,19.46
2018-05-25T17:21:25.364Z,19.47
2018-05-25T17:23:52.987Z,19.38
2018-05-25T17:26:20.580Z,19.24
2018-05-25T17:28:48.184Z,19.05
2018-05-25T17:31:15.826Z,19.14
2018-05-25T17:33:43.402Z,19.05
2018-05-25T17:36:11.120Z,19.08
2018-05-25T17:38:38.693Z,19.07
2018-05-25T17:41:06.301Z,19.04
2018-05-25T17:43:33.890Z,19.08
2018-05-25T17:46:01.509Z,19.03
2018-05-25T17:48:29.103Z,19.00
2018-05-25T17:50:56.713Z,18.86
2018-05-25T17:53:24.330Z,18.86
2018-05-25T17:55:51.969Z,18.76
2018-05-25T17:58:19.567Z,18.67
2018-05-25T18:00:47.228Z,18.65
2018-05-25T18:03:14.833Z,18.74
2018-05-25T18:05:42.435Z,18.76
2018-05-25T18:08:10.935Z,18.70
2018-05-25T18:10:39.767Z,18.67
2018-05-25T18:13:08.190Z,18.59
2018-05-25T18:15:35.852Z,18.55
2018-05-25T18:18:03.474Z,18.52
2018-05-25T18:20:31.061Z,18.64
2018-05-25T18:22:58.853Z,18.67
2018-05-25T18:25:26.460Z,18.70
2018-05-25T18:27:54.039Z,18.70
2018-05-25T18:30:21.698Z,18.70
2018-05-25T18:32:49.320Z,18.67
2018-05-25T18:35:16.904Z,18.60
2018-05-25T18:37:44.522Z,18.55
2018-05-25T18:40:12.210Z,18.45
2018-05-25T18:42:39.803Z,18.42
2018-05-25T18:45:07.479Z,18.42
2018-05-25T18:47:35.089Z,18.47
2018-05-25T18:50:02.749Z,18.45
2018-05-25T18:52:30.488Z,18.50
2018-05-25T18:54:58.155Z,18.51
2018-05-25T18:57:25.771Z,18.43
2018-05-25T18:59:53.410Z,18.44
2018-05-25T19:02:20.993Z,18.53
2018-05-25T19:04:48.597Z,18.50
2018-05-25T19:07:16.255Z,18.49
2018-05-25T19:09:43.871Z,18.47
2018-05-25T19:12:12.269Z,18.35
2018-05-25T19:14:39.898Z,18.30
2018-05-25T19:17:07.527Z,18.29
2018-05-25T19:19:35.125Z,18.29
2018-05-25T19:22:02.761Z,18.34
2018-05-25T19:24:30.346Z,18.34
2018-05-25T19:26:57.935Z,18.31
2018-05-25T19:29:25.580Z,18.28
2018-05-25T19:31:53.189Z,18.15
2018-05-25T19:34:20.793Z,18.03
2018-05-25T19:36:48.423Z,17.96
2018-05-25T19:39:16.007Z,17.98
2018-05-25T19:41:43.629Z,17.99
2018-05-25T19:44:11.273Z,18.00
2018-05-25T19:46:38.877Z,17.96
2018-05-25T19:49:06.474Z,17.98
2018-05-25T19:51:34.094Z,17.98
2018-05-25T19:54:01.682Z,17.93
2018-05-25T19:56:29.275Z,18.00
2018-05-25T19:58:56.922Z,17.96
2018-05-25T20:01:24.514Z,17.89
2018-05-25T20:03:52.126Z,17.94
2018-05-25T20:06:19.769Z,17.91
2018-05-25T20:08:47.372Z,17.80
2018-05-25T20:11:14.975Z,17.78
2018-05-25T20:13:42.601Z,17.67
2018-05-25T20:16:10.253Z,17.65
2018-05-25T20:18:37.851Z,17.63
2018-05-25T20:21:05.489Z,17.58
2018-05-25T20:23:33.071Z,17.55
2018-05-25T20:26:00.671Z,17.51
2018-05-25T20:28:28.367Z,17.60
2018-05-25T20:30:55.969Z,17.58
2018-05-25T20:33:23.586Z,17.54
2018-05-25T20:35:51.207Z,17.50
2018-05-25T20:38:18.797Z,17.47
2018-05-25T20:40:46.388Z,17.51
2018-05-25T20:43:14.004Z,17.51
2018-05-25T20:45:41.589Z,17.44
2018-05-25T20:48:09.183Z,17.40
2018-05-25T20:50:36.823Z,17.37
2018-05-25T20:53:04.424Z,17.39
2018-05-25T20:55:32.006Z,17.43
2018-05-25T20:57:59.635Z,17.28
2018-05-25T21:00:27.235Z,17.21
2018-05-25T21:02:54.834Z,17.16
2018-05-25T21:05:22.496Z,17.13
2018-05-25T21:07:50.088Z,17.14
2018-05-25T21:10:17.682Z,17.10
2018-05-25T21:12:45.315Z,17.00
2018-05-25T21:15:12.904Z,16.95
2018-05-25T21:17:42.073Z,16.92
2018-05-25T21:20:09.695Z,16.87
2018-05-25T21:22:37.285Z,16.84
2018-05-25T21:25:04.878Z,16.78
2018-05-25T21:27:32.518Z,16.72
2018-05-25T21:30:00.141Z,16.71
2018-05-25T21:32:27.710Z,16.64
2018-05-25T21:34:55.324Z,16.67
2018-05-25T21:37:22.909Z,16.63
2018-05-25T21:39:50.489Z,16.64
2018-05-25T21:42:18.115Z,16.60
2018-05-25T21:44:45.695Z,16.60
2018-05-25T21:47:13.269Z,16.65
2018-05-25T21:49:40.881Z,16.61
2018-05-25T21:52:08.452Z,16.61
2018-05-25T21:54:36.036Z,16.57
2018-05-25T21:57:03.693Z,16.56
2018-05-25T21:59:31.277Z,16.55
2018-05-25T22:01:58.847Z,16.53
2018-05-25T22:04:26.447Z,16.55
2018-05-25T22:06:54.049Z,16.52
2018-05-25T22:09:21.643Z,16.52
2018-05-25T22:11:49.303Z,16.50
2018-05-25T22:14:16.892Z,16.49
2018-05-25T22:16:44.494Z,16.47
2018-05-25T22:19:12.129Z,16.43
2018-05-25T22:21:39.715Z,16.42
2018-05-25T22:24:07.325Z,16.40
2018-05-25T22:26:34.947Z,16.40
2018-05-25T22:29:02.543Z,16.50
2018-05-25T22:31:30.152Z,16.38
2018-05-25T22:33:57.777Z,16.36
2018-05-25T22:36:25.346Z,16.43
2018-05-25T22:38:52.936Z,16.63
2018-05-25T22:41:20.566Z,16.49
2018-05-25T22:44:01.220Z,16.44
2018-05-25T22:46:40.592Z,16.51
2018-05-25T22:49:19.875Z,16.52
2018-05-25T22:51:59.453Z,16.47
2018-05-25T22:54:37.267Z,16.58
2018-05-25T22:57:04.898Z,16.48
2018-05-25T22:59:32.856Z,16.47
2018-05-25T23:02:00.701Z,16.45
2018-05-25T23:04:28.355Z,16.52
2018-05-25T23:06:55.938Z,16.46
2018-05-25T23:09:23.520Z,16.47
2018-05-25T23:11:51.155Z,16.40
2018-05-25T23:14:18.744Z,16.31
2018-05-25T23:16:46.336Z,16.33
2018-05-25T23:19:14.027Z,16.21
2018-05-25T23:21:41.616Z,16.13
2018-05-25T23:24:09.236Z,16.23
2018-05-25T23:26:36.873Z,16.36
2018-05-25T23:29:04.472Z,16.41
2018-05-25T23:31:32.102Z,16.61
2018-05-25T23:33:59.733Z,16.72
2018-05-25T23:36:27.313Z,16.60
2018-05-25T23:38:54.913Z,16.45
2018-05-25T23:41:22.619Z,16.35
2018-05-25T23:43:50.220Z,16.33
2018-05-25T23:46:17.822Z,16.42
2018-05-25T23:48:45.454Z,16.37
2018-05-25T23:51:13.059Z,16.15
2018-05-25T23:53:40.663Z,16.22
2018-05-25T23:56:08.285Z,16.37
2018-05-25T23:58:35.883Z,16.32
